sensor_id;sensor_type;location;lat;lon;timestamp;P1;durP1;ratioP1;P2;durP2;ratioP2
38113;SDS011;23926;53.222;6.354;2023-07-31T00:00:04;52.33;;;49.63;;
38113;SDS011;23926;53.222;6.354;2023-07-31T00:02:30;70.15;;;66.82;;
38113;SDS011;23926;53.222;6.354;2023-07-31T00:04:55;73.03;;;69.72;;
38113;SDS011;23926;53.222;6.354;2023-07-31T00:07:21;43.60;;;41.63;;
38113;SDS011;23926;53.222;6.354;2023-07-31T00:09:46;62.35;;;59.35;;
38113;SDS011;23926;53.222;6.354;2023-07-31T00:12:12;151.25;;;144.88;;
38113;SDS011;23926;53.222;6.354;2023-07-31T00:14:37;23.10;;;21.95;;
38113;SDS011;23926;53.222;6.354;2023-07-31T00:17:02;228.88;;;219.25;;
38113;SDS011;23926;53.222;6.354;2023-07-31T00:19:28;184.60;;;176.98;;
38113;SDS011;23926;53.222;6.354;2023-07-31T00:21:54;323.23;;;307.38;;
38113;SDS011;23926;53.222;6.354;2023-07-31T00:24:19;309.10;;;295.33;;
38113;SDS011;23926;53.222;6.354;2023-07-31T00:26:44;357.67;;;337.65;;
38113;SDS011;23926;53.222;6.354;2023-07-31T00:29:10;397.60;;;373.13;;
38113;SDS011;23926;53.222;6.354;2023-07-31T00:31:35;402.88;;;377.67;;
38113;SDS011;23926;53.222;6.354;2023-07-31T00:34:00;398.40;;;371.00;;
38113;SDS011;23926;53.222;6.354;2023-07-31T00:36:26;417.13;;;391.63;;
38113;SDS011;23926;53.222;6.354;2023-07-31T00:38:51;435.08;;;405.00;;
38113;SDS011;23926;53.222;6.354;2023-07-31T00:41:17;427.70;;;396.80;;
38113;SDS011;23926;53.222;6.354;2023-07-31T00:43:42;446.52;;;418.05;;
38113;SDS011;23926;53.222;6.354;2023-07-31T00:46:08;429.60;;;402.17;;
38113;SDS011;23926;53.222;6.354;2023-07-31T00:48:33;400.95;;;376.98;;
38113;SDS011;23926;53.222;6.354;2023-07-31T00:51:00;438.73;;;411.38;;
38113;SDS011;23926;53.222;6.354;2023-07-31T00:53:26;418.30;;;392.67;;
38113;SDS011;23926;53.222;6.354;2023-07-31T00:55:52;387.42;;;365.33;;
38113;SDS011;23926;53.222;6.354;2023-07-31T00:58:18;371.38;;;352.05;;
38113;SDS011;23926;53.222;6.354;2023-07-31T01:00:43;295.73;;;281.13;;
38113;SDS011;23926;53.222;6.354;2023-07-31T01:03:09;348.90;;;330.95;;
38113;SDS011;23926;53.222;6.354;2023-07-31T01:05:41;320.27;;;303.20;;
38113;SDS011;23926;53.222;6.354;2023-07-31T01:08:38;321.55;;;303.95;;
38113;SDS011;23926;53.222;6.354;2023-07-31T01:11:07;356.70;;;338.02;;
38113;SDS011;23926;53.222;6.354;2023-07-31T01:13:56;357.52;;;336.58;;
38113;SDS011;23926;53.222;6.354;2023-07-31T01:16:22;363.10;;;343.02;;
38113;SDS011;23926;53.222;6.354;2023-07-31T01:18:47;318.33;;;302.33;;
38113;SDS011;23926;53.222;6.354;2023-07-31T01:24:06;330.45;;;313.35;;
38113;SDS011;23926;53.222;6.354;2023-07-31T01:26:47;298.90;;;282.67;;
38113;SDS011;23926;53.222;6.354;2023-07-31T01:31:55;356.83;;;336.05;;
38113;SDS011;23926;53.222;6.354;2023-07-31T01:34:23;349.55;;;329.27;;
38113;SDS011;23926;53.222;6.354;2023-07-31T01:36:49;321.98;;;305.23;;
38113;SDS011;23926;53.222;6.354;2023-07-31T01:39:14;296.98;;;281.67;;
38113;SDS011;23926;53.222;6.354;2023-07-31T01:41:40;287.35;;;272.38;;
38113;SDS011;23926;53.222;6.354;2023-07-31T01:44:06;361.13;;;341.38;;
38113;SDS011;23926;53.222;6.354;2023-07-31T01:46:32;347.55;;;327.48;;
38113;SDS011;23926;53.222;6.354;2023-07-31T01:48:57;321.25;;;303.08;;
38113;SDS011;23926;53.222;6.354;2023-07-31T01:51:22;324.90;;;307.70;;
38113;SDS011;23926;53.222;6.354;2023-07-31T01:53:48;332.75;;;313.50;;
38113;SDS011;23926;53.222;6.354;2023-07-31T01:56:13;372.38;;;350.58;;
38113;SDS011;23926;53.222;6.354;2023-07-31T01:58:39;355.73;;;334.65;;
38113;SDS011;23926;53.222;6.354;2023-07-31T02:01:04;352.42;;;331.73;;
38113;SDS011;23926;53.222;6.354;2023-07-31T02:03:30;319.10;;;300.42;;
38113;SDS011;23926;53.222;6.354;2023-07-31T02:05:55;390.20;;;364.02;;
38113;SDS011;23926;53.222;6.354;2023-07-31T02:08:21;364.23;;;341.75;;
38113;SDS011;23926;53.222;6.354;2023-07-31T02:10:47;345.15;;;326.33;;
38113;SDS011;23926;53.222;6.354;2023-07-31T02:13:12;334.33;;;314.67;;
38113;SDS011;23926;53.222;6.354;2023-07-31T02:15:38;388.50;;;363.65;;
38113;SDS011;23926;53.222;6.354;2023-07-31T02:18:03;345.00;;;324.38;;
38113;SDS011;23926;53.222;6.354;2023-07-31T02:20:28;333.45;;;314.25;;
38113;SDS011;23926;53.222;6.354;2023-07-31T02:22:54;336.33;;;316.30;;
38113;SDS011;23926;53.222;6.354;2023-07-31T02:25:19;334.85;;;316.60;;
38113;SDS011;23926;53.222;6.354;2023-07-31T02:27:45;321.95;;;305.02;;
38113;SDS011;23926;53.222;6.354;2023-07-31T02:30:10;343.70;;;323.77;;
38113;SDS011;23926;53.222;6.354;2023-07-31T02:32:36;295.88;;;281.88;;
38113;SDS011;23926;53.222;6.354;2023-07-31T02:35:01;345.98;;;325.65;;
38113;SDS011;23926;53.222;6.354;2023-07-31T02:37:27;343.70;;;325.20;;
38113;SDS011;23926;53.222;6.354;2023-07-31T02:39:53;351.98;;;331.55;;
38113;SDS011;23926;53.222;6.354;2023-07-31T02:42:19;307.58;;;292.08;;
38113;SDS011;23926;53.222;6.354;2023-07-31T02:44:44;315.35;;;298.65;;
38113;SDS011;23926;53.222;6.354;2023-07-31T02:47:10;330.52;;;313.15;;
38113;SDS011;23926;53.222;6.354;2023-07-31T02:49:35;312.58;;;296.13;;
38113;SDS011;23926;53.222;6.354;2023-07-31T02:52:01;350.38;;;330.50;;
38113;SDS011;23926;53.222;6.354;2023-07-31T02:54:26;305.20;;;289.20;;
38113;SDS011;23926;53.222;6.354;2023-07-31T02:56:52;324.48;;;307.17;;
38113;SDS011;23926;53.222;6.354;2023-07-31T02:59:17;316.52;;;301.30;;
38113;SDS011;23926;53.222;6.354;2023-07-31T03:01:43;308.50;;;293.67;;
38113;SDS011;23926;53.222;6.354;2023-07-31T03:04:09;299.23;;;284.73;;
38113;SDS011;23926;53.222;6.354;2023-07-31T03:06:34;325.73;;;308.80;;
38113;SDS011;23926;53.222;6.354;2023-07-31T03:09:00;310.67;;;295.25;;
38113;SDS011;23926;53.222;6.354;2023-07-31T03:11:25;304.25;;;288.95;;
38113;SDS011;23926;53.222;6.354;2023-07-31T03:13:51;313.50;;;297.98;;
38113;SDS011;23926;53.222;6.354;2023-07-31T03:16:16;291.05;;;276.73;;
38113;SDS011;23926;53.222;6.354;2023-07-31T03:18:41;244.80;;;232.65;;
38113;SDS011;23926;53.222;6.354;2023-07-31T03:21:07;345.63;;;325.92;;
38113;SDS011;23926;53.222;6.354;2023-07-31T03:23:32;301.75;;;286.27;;
38113;SDS011;23926;53.222;6.354;2023-07-31T03:26:03;336.58;;;318.98;;
38113;SDS011;23926;53.222;6.354;2023-07-31T03:28:30;278.58;;;265.60;;
38113;SDS011;23926;53.222;6.354;2023-07-31T03:30:56;262.70;;;250.57;;
38113;SDS011;23926;53.222;6.354;2023-07-31T03:33:21;292.60;;;278.38;;
38113;SDS011;23926;53.222;6.354;2023-07-31T03:35:47;291.90;;;276.40;;
38113;SDS011;23926;53.222;6.354;2023-07-31T03:38:12;273.02;;;260.40;;
38113;SDS011;23926;53.222;6.354;2023-07-31T03:40:38;293.58;;;278.27;;
38113;SDS011;23926;53.222;6.354;2023-07-31T03:43:04;307.70;;;291.65;;
38113;SDS011;23926;53.222;6.354;2023-07-31T03:45:30;330.60;;;312.40;;
38113;SDS011;23926;53.222;6.354;2023-07-31T03:47:55;337.40;;;318.45;;
38113;SDS011;23926;53.222;6.354;2023-07-31T03:50:21;311.83;;;294.73;;
38113;SDS011;23926;53.222;6.354;2023-07-31T03:52:47;321.80;;;304.63;;
38113;SDS011;23926;53.222;6.354;2023-07-31T03:55:12;271.17;;;258.73;;
38113;SDS011;23926;53.222;6.354;2023-07-31T03:57:38;322.38;;;306.08;;
38113;SDS011;23926;53.222;6.354;2023-07-31T04:00:03;279.95;;;265.70;;
38113;SDS011;23926;53.222;6.354;2023-07-31T04:02:29;341.20;;;321.50;;
38113;SDS011;23926;53.222;6.354;2023-07-31T04:04:54;301.45;;;285.60;;
38113;SDS011;23926;53.222;6.354;2023-07-31T04:07:20;264.13;;;252.00;;
38113;SDS011;23926;53.222;6.354;2023-07-31T04:09:45;270.90;;;256.63;;
38113;SDS011;23926;53.222;6.354;2023-07-31T04:12:11;308.75;;;292.50;;
38113;SDS011;23926;53.222;6.354;2023-07-31T04:14:36;275.27;;;262.02;;
38113;SDS011;23926;53.222;6.354;2023-07-31T04:17:02;270.15;;;256.30;;
38113;SDS011;23926;53.222;6.354;2023-07-31T04:19:27;301.63;;;286.20;;
38113;SDS011;23926;53.222;6.354;2023-07-31T04:21:53;297.48;;;283.73;;
38113;SDS011;23926;53.222;6.354;2023-07-31T04:24:18;285.42;;;271.92;;
38113;SDS011;23926;53.222;6.354;2023-07-31T04:26:49;276.88;;;262.42;;
38113;SDS011;23926;53.222;6.354;2023-07-31T04:29:15;234.70;;;223.95;;
38113;SDS011;23926;53.222;6.354;2023-07-31T04:31:41;252.23;;;240.23;;
38113;SDS011;23926;53.222;6.354;2023-07-31T04:34:06;306.70;;;290.85;;
38113;SDS011;23926;53.222;6.354;2023-07-31T04:36:32;283.88;;;270.13;;
38113;SDS011;23926;53.222;6.354;2023-07-31T04:38:58;319.23;;;302.80;;
38113;SDS011;23926;53.222;6.354;2023-07-31T04:41:24;292.75;;;278.02;;
38113;SDS011;23926;53.222;6.354;2023-07-31T04:43:49;309.95;;;294.05;;
38113;SDS011;23926;53.222;6.354;2023-07-31T04:46:15;283.17;;;269.30;;
38113;SDS011;23926;53.222;6.354;2023-07-31T04:48:40;282.92;;;268.60;;
38113;SDS011;23926;53.222;6.354;2023-07-31T04:51:05;267.67;;;254.10;;
38113;SDS011;23926;53.222;6.354;2023-07-31T04:53:31;279.00;;;265.70;;
38113;SDS011;23926;53.222;6.354;2023-07-31T04:55:56;278.75;;;264.85;;
38113;SDS011;23926;53.222;6.354;2023-07-31T04:58:22;276.30;;;262.65;;
38113;SDS011;23926;53.222;6.354;2023-07-31T05:00:47;296.17;;;281.52;;
38113;SDS011;23926;53.222;6.354;2023-07-31T05:03:12;301.45;;;287.10;;
38113;SDS011;23926;53.222;6.354;2023-07-31T05:05:38;238.38;;;227.00;;
38113;SDS011;23926;53.222;6.354;2023-07-31T05:08:03;266.50;;;254.15;;
38113;SDS011;23926;53.222;6.354;2023-07-31T05:10:29;230.32;;;219.98;;
38113;SDS011;23926;53.222;6.354;2023-07-31T05:12:54;266.55;;;253.80;;
38113;SDS011;23926;53.222;6.354;2023-07-31T05:15:20;280.92;;;266.70;;
38113;SDS011;23926;53.222;6.354;2023-07-31T05:17:45;287.30;;;273.83;;
38113;SDS011;23926;53.222;6.354;2023-07-31T05:20:11;266.83;;;253.50;;
38113;SDS011;23926;53.222;6.354;2023-07-31T05:22:36;296.25;;;282.17;;
38113;SDS011;23926;53.222;6.354;2023-07-31T05:25:02;218.07;;;208.18;;
38113;SDS011;23926;53.222;6.354;2023-07-31T05:27:27;265.65;;;251.98;;
38113;SDS011;23926;53.222;6.354;2023-07-31T05:29:53;276.95;;;262.67;;
38113;SDS011;23926;53.222;6.354;2023-07-31T05:32:18;303.60;;;288.02;;
38113;SDS011;23926;53.222;6.354;2023-07-31T05:34:43;301.60;;;285.67;;
38113;SDS011;23926;53.222;6.354;2023-07-31T05:37:10;303.23;;;287.52;;
38113;SDS011;23926;53.222;6.354;2023-07-31T05:39:36;284.50;;;269.23;;
38113;SDS011;23926;53.222;6.354;2023-07-31T05:42:01;336.50;;;316.27;;
38113;SDS011;23926;53.222;6.354;2023-07-31T05:44:26;335.38;;;314.20;;
38113;SDS011;23926;53.222;6.354;2023-07-31T05:46:52;339.48;;;318.55;;
38113;SDS011;23926;53.222;6.354;2023-07-31T05:49:17;338.73;;;317.45;;
38113;SDS011;23926;53.222;6.354;2023-07-31T05:51:43;338.25;;;317.98;;
38113;SDS011;23926;53.222;6.354;2023-07-31T05:54:08;349.50;;;327.92;;
38113;SDS011;23926;53.222;6.354;2023-07-31T05:56:33;308.95;;;292.92;;
38113;SDS011;23926;53.222;6.354;2023-07-31T05:58:59;341.42;;;320.85;;
38113;SDS011;23926;53.222;6.354;2023-07-31T06:01:24;354.58;;;334.33;;
38113;SDS011;23926;53.222;6.354;2023-07-31T06:03:50;340.20;;;321.30;;
38113;SDS011;23926;53.222;6.354;2023-07-31T06:06:15;358.17;;;336.98;;
38113;SDS011;23926;53.222;6.354;2023-07-31T06:08:41;358.45;;;337.02;;
38113;SDS011;23926;53.222;6.354;2023-07-31T06:11:06;346.73;;;325.83;;
38113;SDS011;23926;53.222;6.354;2023-07-31T06:13:34;355.42;;;334.92;;
38113;SDS011;23926;53.222;6.354;2023-07-31T06:15:59;340.20;;;319.80;;
38113;SDS011;23926;53.222;6.354;2023-07-31T06:18:25;342.90;;;322.08;;
38113;SDS011;23926;53.222;6.354;2023-07-31T06:20:50;364.05;;;341.63;;
38113;SDS011;23926;53.222;6.354;2023-07-31T06:23:18;356.92;;;335.33;;
38113;SDS011;23926;53.222;6.354;2023-07-31T06:25:44;363.73;;;345.92;;
38113;SDS011;23926;53.222;6.354;2023-07-31T06:28:10;322.08;;;304.83;;
38113;SDS011;23926;53.222;6.354;2023-07-31T06:30:35;310.75;;;293.33;;
38113;SDS011;23926;53.222;6.354;2023-07-31T06:33:00;362.23;;;342.00;;
38113;SDS011;23926;53.222;6.354;2023-07-31T06:35:26;374.02;;;350.85;;
38113;SDS011;23926;53.222;6.354;2023-07-31T06:37:51;340.15;;;321.35;;
38113;SDS011;23926;53.222;6.354;2023-07-31T06:40:17;306.70;;;293.02;;
38113;SDS011;23926;53.222;6.354;2023-07-31T06:42:42;351.45;;;331.48;;
38113;SDS011;23926;53.222;6.354;2023-07-31T06:45:08;323.52;;;306.30;;
38113;SDS011;23926;53.222;6.354;2023-07-31T06:47:33;366.10;;;344.10;;
38113;SDS011;23926;53.222;6.354;2023-07-31T06:49:59;398.58;;;372.90;;
38113;SDS011;23926;53.222;6.354;2023-07-31T06:52:25;380.45;;;354.48;;
38113;SDS011;23926;53.222;6.354;2023-07-31T06:55:03;383.50;;;356.23;;
38113;SDS011;23926;53.222;6.354;2023-07-31T06:57:40;404.13;;;374.25;;
38113;SDS011;23926;53.222;6.354;2023-07-31T07:00:06;358.83;;;336.17;;
38113;SDS011;23926;53.222;6.354;2023-07-31T07:02:32;355.02;;;331.55;;
38113;SDS011;23926;53.222;6.354;2023-07-31T07:04:57;363.88;;;338.33;;
38113;SDS011;23926;53.222;6.354;2023-07-31T07:07:23;358.17;;;333.85;;
38113;SDS011;23926;53.222;6.354;2023-07-31T07:09:48;369.30;;;343.48;;
38113;SDS011;23926;53.222;6.354;2023-07-31T07:12:14;333.90;;;314.20;;
38113;SDS011;23926;53.222;6.354;2023-07-31T07:14:39;219.57;;;208.30;;
38113;SDS011;23926;53.222;6.354;2023-07-31T07:17:04;328.63;;;307.25;;
38113;SDS011;23926;53.222;6.354;2023-07-31T07:19:30;321.60;;;302.30;;
38113;SDS011;23926;53.222;6.354;2023-07-31T07:21:55;337.05;;;314.35;;
38113;SDS011;23926;53.222;6.354;2023-07-31T07:24:21;323.17;;;302.05;;
38113;SDS011;23926;53.222;6.354;2023-07-31T07:26:46;349.50;;;325.52;;
38113;SDS011;23926;53.222;6.354;2023-07-31T07:29:12;318.00;;;297.55;;
38113;SDS011;23926;53.222;6.354;2023-07-31T07:31:37;340.35;;;317.25;;
38113;SDS011;23926;53.222;6.354;2023-07-31T07:34:02;312.02;;;292.10;;
38113;SDS011;23926;53.222;6.354;2023-07-31T07:36:28;350.02;;;324.77;;
38113;SDS011;23926;53.222;6.354;2023-07-31T07:38:54;315.20;;;296.27;;
38113;SDS011;23926;53.222;6.354;2023-07-31T07:41:19;331.40;;;309.52;;
38113;SDS011;23926;53.222;6.354;2023-07-31T07:43:44;285.77;;;270.17;;
38113;SDS011;23926;53.222;6.354;2023-07-31T07:46:10;306.88;;;289.00;;
38113;SDS011;23926;53.222;6.354;2023-07-31T07:48:35;300.00;;;280.73;;
38113;SDS011;23926;53.222;6.354;2023-07-31T07:51:01;330.13;;;309.90;;
38113;SDS011;23926;53.222;6.354;2023-07-31T07:53:26;336.52;;;316.40;;
38113;SDS011;23926;53.222;6.354;2023-07-31T07:55:51;311.70;;;294.42;;
38113;SDS011;23926;53.222;6.354;2023-07-31T07:58:17;324.45;;;305.17;;
38113;SDS011;23926;53.222;6.354;2023-07-31T08:00:47;322.73;;;303.45;;
38113;SDS011;23926;53.222;6.354;2023-07-31T08:03:13;332.48;;;315.38;;
38113;SDS011;23926;53.222;6.354;2023-07-31T08:05:39;319.27;;;302.92;;
38113;SDS011;23926;53.222;6.354;2023-07-31T08:08:04;299.85;;;286.77;;
38113;SDS011;23926;53.222;6.354;2023-07-31T08:10:30;261.55;;;250.20;;
38113;SDS011;23926;53.222;6.354;2023-07-31T08:12:55;221.75;;;212.10;;
38113;SDS011;23926;53.222;6.354;2023-07-31T08:15:21;303.98;;;289.52;;
38113;SDS011;23926;53.222;6.354;2023-07-31T08:17:46;208.27;;;198.57;;
38113;SDS011;23926;53.222;6.354;2023-07-31T08:20:11;233.10;;;223.25;;
38113;SDS011;23926;53.222;6.354;2023-07-31T08:22:37;230.55;;;219.85;;
38113;SDS011;23926;53.222;6.354;2023-07-31T08:25:02;286.40;;;272.50;;
38113;SDS011;23926;53.222;6.354;2023-07-31T08:27:28;270.70;;;258.15;;
38113;SDS011;23926;53.222;6.354;2023-07-31T08:29:53;252.55;;;240.98;;
38113;SDS011;23926;53.222;6.354;2023-07-31T08:32:19;224.40;;;214.98;;
38113;SDS011;23926;53.222;6.354;2023-07-31T08:34:44;259.38;;;247.30;;
38113;SDS011;23926;53.222;6.354;2023-07-31T08:37:10;86.78;;;82.95;;
38113;SDS011;23926;53.222;6.354;2023-07-31T08:39:36;114.25;;;108.93;;
38113;SDS011;23926;53.222;6.354;2023-07-31T08:42:07;133.57;;;127.85;;
38113;SDS011;23926;53.222;6.354;2023-07-31T08:44:33;108.85;;;104.03;;
38113;SDS011;23926;53.222;6.354;2023-07-31T08:46:59;68.25;;;65.32;;
38113;SDS011;23926;53.222;6.354;2023-07-31T08:49:26;119.65;;;114.22;;
38113;SDS011;23926;53.222;6.354;2023-07-31T08:51:52;61.78;;;59.13;;
38113;SDS011;23926;53.222;6.354;2023-07-31T08:54:19;108.22;;;103.18;;
38113;SDS011;23926;53.222;6.354;2023-07-31T08:56:45;188.02;;;178.82;;
38113;SDS011;23926;53.222;6.354;2023-07-31T08:59:11;126.20;;;120.75;;
38113;SDS011;23926;53.222;6.354;2023-07-31T09:01:42;110.47;;;104.95;;
38113;SDS011;23926;53.222;6.354;2023-07-31T09:04:11;86.55;;;82.70;;
38113;SDS011;23926;53.222;6.354;2023-07-31T09:06:39;115.15;;;109.95;;
38113;SDS011;23926;53.222;6.354;2023-07-31T09:09:05;140.30;;;133.38;;
38113;SDS011;23926;53.222;6.354;2023-07-31T09:11:31;144.35;;;137.32;;
38113;SDS011;23926;53.222;6.354;2023-07-31T09:13:57;131.25;;;125.45;;
38113;SDS011;23926;53.222;6.354;2023-07-31T09:16:29;117.75;;;112.53;;
38113;SDS011;23926;53.222;6.354;2023-07-31T09:18:56;67.90;;;65.00;;
38113;SDS011;23926;53.222;6.354;2023-07-31T09:21:23;137.30;;;130.23;;
38113;SDS011;23926;53.222;6.354;2023-07-31T09:23:50;143.35;;;136.25;;
38113;SDS011;23926;53.222;6.354;2023-07-31T09:26:34;94.40;;;89.90;;
38113;SDS011;23926;53.222;6.354;2023-07-31T09:29:06;161.70;;;154.00;;
38113;SDS011;23926;53.222;6.354;2023-07-31T09:31:43;164.95;;;155.60;;
38113;SDS011;23926;53.222;6.354;2023-07-31T09:34:10;116.68;;;111.13;;
38113;SDS011;23926;53.222;6.354;2023-07-31T09:36:45;118.43;;;113.03;;
38113;SDS011;23926;53.222;6.354;2023-07-31T09:39:12;95.75;;;91.22;;
38113;SDS011;23926;53.222;6.354;2023-07-31T09:41:38;124.97;;;119.18;;
38113;SDS011;23926;53.222;6.354;2023-07-31T09:44:04;89.97;;;85.90;;
38113;SDS011;23926;53.222;6.354;2023-07-31T09:46:30;83.68;;;79.78;;
38113;SDS011;23926;53.222;6.354;2023-07-31T09:49:09;79.85;;;76.18;;
38113;SDS011;23926;53.222;6.354;2023-07-31T09:51:36;72.80;;;69.05;;
38113;SDS011;23926;53.222;6.354;2023-07-31T09:54:13;56.90;;;54.25;;
38113;SDS011;23926;53.222;6.354;2023-07-31T09:56:44;94.60;;;90.32;;
38113;SDS011;23926;53.222;6.354;2023-07-31T09:59:12;42.33;;;40.50;;
38113;SDS011;23926;53.222;6.354;2023-07-31T10:01:39;59.25;;;56.47;;
38113;SDS011;23926;53.222;6.354;2023-07-31T10:04:07;98.43;;;93.70;;
38113;SDS011;23926;53.222;6.354;2023-07-31T10:06:35;76.35;;;72.90;;
38113;SDS011;23926;53.222;6.354;2023-07-31T10:09:03;144.43;;;138.07;;
38113;SDS011;23926;53.222;6.354;2023-07-31T10:11:32;172.05;;;164.50;;
38113;SDS011;23926;53.222;6.354;2023-07-31T10:14:03;155.05;;;148.10;;
38113;SDS011;23926;53.222;6.354;2023-07-31T10:16:29;187.48;;;178.88;;
38113;SDS011;23926;53.222;6.354;2023-07-31T10:18:56;269.05;;;255.90;;
38113;SDS011;23926;53.222;6.354;2023-07-31T10:21:22;177.32;;;168.82;;
38113;SDS011;23926;53.222;6.354;2023-07-31T10:23:47;202.23;;;192.70;;
38113;SDS011;23926;53.222;6.354;2023-07-31T10:26:14;160.90;;;153.80;;
38113;SDS011;23926;53.222;6.354;2023-07-31T10:28:40;157.00;;;149.85;;
38113;SDS011;23926;53.222;6.354;2023-07-31T10:31:06;132.88;;;127.00;;
38113;SDS011;23926;53.222;6.354;2023-07-31T10:33:38;135.00;;;128.88;;
38113;SDS011;23926;53.222;6.354;2023-07-31T10:36:17;241.13;;;228.55;;
38113;SDS011;23926;53.222;6.354;2023-07-31T10:38:46;263.55;;;250.40;;
38113;SDS011;23926;53.222;6.354;2023-07-31T10:41:14;243.50;;;230.90;;
38113;SDS011;23926;53.222;6.354;2023-07-31T10:43:39;279.95;;;266.08;;
38113;SDS011;23926;53.222;6.354;2023-07-31T10:46:08;248.20;;;236.45;;
38113;SDS011;23926;53.222;6.354;2023-07-31T10:48:36;296.35;;;279.42;;
38113;SDS011;23926;53.222;6.354;2023-07-31T10:51:06;204.38;;;193.82;;
38113;SDS011;23926;53.222;6.354;2023-07-31T10:53:33;96.05;;;91.55;;
38113;SDS011;23926;53.222;6.354;2023-07-31T10:56:00;59.08;;;56.42;;
38113;SDS011;23926;53.222;6.354;2023-07-31T10:58:29;117.30;;;112.13;;
38113;SDS011;23926;53.222;6.354;2023-07-31T11:00:57;67.13;;;64.13;;
38113;SDS011;23926;53.222;6.354;2023-07-31T11:03:41;207.30;;;196.77;;
38113;SDS011;23926;53.222;6.354;2023-07-31T11:06:07;239.05;;;226.80;;
38113;SDS011;23926;53.222;6.354;2023-07-31T11:08:33;194.60;;;185.13;;
38113;SDS011;23926;53.222;6.354;2023-07-31T11:16:10;261.83;;;248.75;;
38113;SDS011;23926;53.222;6.354;2023-07-31T11:18:40;248.77;;;236.27;;
38113;SDS011;23926;53.222;6.354;2023-07-31T11:21:13;263.23;;;249.82;;
38113;SDS011;23926;53.222;6.354;2023-07-31T11:23:49;298.70;;;281.45;;
38113;SDS011;23926;53.222;6.354;2023-07-31T11:26:16;233.82;;;221.95;;
38113;SDS011;23926;53.222;6.354;2023-07-31T11:28:42;365.48;;;344.83;;
38113;SDS011;23926;53.222;6.354;2023-07-31T11:31:11;423.30;;;396.90;;
38113;SDS011;23926;53.222;6.354;2023-07-31T11:33:36;402.30;;;377.67;;
38113;SDS011;23926;53.222;6.354;2023-07-31T11:36:02;382.80;;;358.60;;
38113;SDS011;23926;53.222;6.354;2023-07-31T11:38:31;352.27;;;331.50;;
38113;SDS011;23926;53.222;6.354;2023-07-31T11:40:59;316.20;;;297.20;;
38113;SDS011;23926;53.222;6.354;2023-07-31T11:43:28;329.67;;;309.75;;
38113;SDS011;23926;53.222;6.354;2023-07-31T11:45:57;286.23;;;270.90;;
38113;SDS011;23926;53.222;6.354;2023-07-31T11:48:26;319.98;;;301.20;;
38113;SDS011;23926;53.222;6.354;2023-07-31T11:51:00;319.63;;;300.48;;
38113;SDS011;23926;53.222;6.354;2023-07-31T11:53:47;224.43;;;212.65;;
38113;SDS011;23926;53.222;6.354;2023-07-31T11:56:16;293.00;;;276.00;;
38113;SDS011;23926;53.222;6.354;2023-07-31T11:58:43;288.50;;;272.10;;
38113;SDS011;23926;53.222;6.354;2023-07-31T12:01:14;223.50;;;211.73;;
38113;SDS011;23926;53.222;6.354;2023-07-31T12:03:41;272.52;;;258.40;;
38113;SDS011;23926;53.222;6.354;2023-07-31T12:06:08;238.90;;;227.00;;
38113;SDS011;23926;53.222;6.354;2023-07-31T12:08:33;288.02;;;269.98;;
38113;SDS011;23926;53.222;6.354;2023-07-31T12:11:03;221.73;;;210.27;;
38113;SDS011;23926;53.222;6.354;2023-07-31T12:13:30;247.93;;;234.40;;
38113;SDS011;23926;53.222;6.354;2023-07-31T12:15:57;300.73;;;285.35;;
38113;SDS011;23926;53.222;6.354;2023-07-31T12:18:25;149.02;;;141.88;;
38113;SDS011;23926;53.222;6.354;2023-07-31T12:20:57;223.05;;;212.45;;
38113;SDS011;23926;53.222;6.354;2023-07-31T12:23:25;201.40;;;192.00;;
38113;SDS011;23926;53.222;6.354;2023-07-31T12:28:47;73.53;;;70.22;;
38113;SDS011;23926;53.222;6.354;2023-07-31T12:33:44;53.45;;;51.10;;
38113;SDS011;23926;53.222;6.354;2023-07-31T12:36:12;19.63;;;18.83;;
38113;SDS011;23926;53.222;6.354;2023-07-31T12:38:39;33.85;;;32.25;;
38113;SDS011;23926;53.222;6.354;2023-07-31T12:41:05;41.60;;;39.60;;
38113;SDS011;23926;53.222;6.354;2023-07-31T12:43:36;27.05;;;25.73;;
38113;SDS011;23926;53.222;6.354;2023-07-31T12:46:03;19.00;;;18.10;;
38113;SDS011;23926;53.222;6.354;2023-07-31T12:48:31;58.85;;;55.88;;
38113;SDS011;23926;53.222;6.354;2023-07-31T12:50:57;58.45;;;55.78;;
38113;SDS011;23926;53.222;6.354;2023-07-31T12:53:22;20.95;;;20.02;;
38113;SDS011;23926;53.222;6.354;2023-07-31T12:55:48;30.90;;;29.42;;
38113;SDS011;23926;53.222;6.354;2023-07-31T12:58:14;22.98;;;21.83;;
38113;SDS011;23926;53.222;6.354;2023-07-31T13:00:39;12.70;;;11.50;;
38113;SDS011;23926;53.222;6.354;2023-07-31T13:03:05;37.97;;;35.65;;
38113;SDS011;23926;53.222;6.354;2023-07-31T13:05:30;19.38;;;18.42;;
38113;SDS011;23926;53.222;6.354;2023-07-31T13:07:56;26.85;;;25.35;;
38113;SDS011;23926;53.222;6.354;2023-07-31T13:10:24;20.08;;;18.98;;
38113;SDS011;23926;53.222;6.354;2023-07-31T13:12:51;8.97;;;6.83;;
38113;SDS011;23926;53.222;6.354;2023-07-31T13:15:17;7.03;;;4.65;;
38113;SDS011;23926;53.222;6.354;2023-07-31T13:17:42;8.05;;;7.43;;
38113;SDS011;23926;53.222;6.354;2023-07-31T13:20:08;5.30;;;2.83;;
38113;SDS011;23926;53.222;6.354;2023-07-31T13:22:34;4.45;;;2.10;;
38113;SDS011;23926;53.222;6.354;2023-07-31T13:24:59;7.15;;;6.57;;
38113;SDS011;23926;53.222;6.354;2023-07-31T13:27:25;3.65;;;3.35;;
38113;SDS011;23926;53.222;6.354;2023-07-31T13:29:50;4.93;;;4.55;;
38113;SDS011;23926;53.222;6.354;2023-07-31T13:32:17;7.75;;;7.15;;
38113;SDS011;23926;53.222;6.354;2023-07-31T13:34:44;6.25;;;5.60;;
38113;SDS011;23926;53.222;6.354;2023-07-31T13:37:10;4.55;;;2.58;;
38113;SDS011;23926;53.222;6.354;2023-07-31T13:39:36;4.82;;;3.60;;
38113;SDS011;23926;53.222;6.354;2023-07-31T13:42:02;3.67;;;3.35;;
38113;SDS011;23926;53.222;6.354;2023-07-31T13:44:28;2.15;;;1.65;;
38113;SDS011;23926;53.222;6.354;2023-07-31T13:46:53;3.20;;;2.90;;
38113;SDS011;23926;53.222;6.354;2023-07-31T13:49:19;11.32;;;2.88;;
38113;SDS011;23926;53.222;6.354;2023-07-31T13:51:44;3.15;;;2.10;;
38113;SDS011;23926;53.222;6.354;2023-07-31T13:54:11;2.83;;;2.30;;
38113;SDS011;23926;53.222;6.354;2023-07-31T13:56:37;2.78;;;2.10;;
38113;SDS011;23926;53.222;6.354;2023-07-31T13:59:03;3.95;;;2.42;;
38113;SDS011;23926;53.222;6.354;2023-07-31T14:01:29;4.30;;;2.17;;
38113;SDS011;23926;53.222;6.354;2023-07-31T14:03:55;2.53;;;2.03;;
38113;SDS011;23926;53.222;6.354;2023-07-31T14:06:21;3.45;;;2.53;;
38113;SDS011;23926;53.222;6.354;2023-07-31T14:08:46;4.30;;;2.75;;
38113;SDS011;23926;53.222;6.354;2023-07-31T14:11:12;3.53;;;2.90;;
38113;SDS011;23926;53.222;6.354;2023-07-31T14:13:37;4.68;;;2.95;;
38113;SDS011;23926;53.222;6.354;2023-07-31T14:16:03;3.90;;;2.90;;